Cable, WI

9:48 PM CDT on April 25, 2015 (GMT -0500)
Namakagon Fire Dept | | Change Station
CLOSE
Current Station
Personal Weather Station
Location: Cable, WI
Elevation: 1424 ft
Nearby Weather Stations

Elev 1424 ft 46.19 °N, 91.07 °W | Updated 1 minute ago

Clear
Clear
33.4 °F
Feels Like 27 °F
N
6.9
Wind Variable Wind from NW
Gusts 6.9 mph

Today
High -- | Low -- °F
--% Chance of Precip.
Yesterday
High -- | Low -- °F
Precip. -- in
6:01 AM 8:05 PM
Waxing Crescent, 51% visible
Pressure 30.02 in
Visibility 10.0 miles
Clouds Clear
Windchill 27 °F
Dew Point 21 °F
Humidity 60%
Rainfall 0.00 in
Snow Depth Not available.
UV 0 out of 12
Pollen 7.60 out of 12
Air Quality Not available.
Flu Activity Local Activity
METAR KHYR 260153Z AUTO 03009KT 10SM CLR 04/M07 A2998 RMK AO2 SLP164 T00391067

More Conditions Fewer Conditions

Pressure 30.02 in
Visibility 10.0 miles
Clouds Clear
Windchill 27 °F
Dew Point 21 °F
Humidity 60%
Rainfall 0.00 in
Snow Depth Not available.
UV 0 out of 12
Pollen 7.60 out of 12
Air Quality Not available.
Flu Activity Local Activity
METAR KHYR 260153Z AUTO 03009KT 10SM CLR 04/M07 A2998 RMK AO2 SLP164 T00391067

More Conditions Fewer Conditions

10-Day Weather Forecast

Almanac

Astronomy

Apr. 25, 2015 Rise Set
Actual Time
Civil Twilight
Nautical Twilight
Astronomical Twilight
Moon
Length of Visible Light
Length of Day
Tomorrow will be .
, % of the Moon is Illuminated

Today's Extremes

State Highs State Lows

Community

WunderPhotos

Upload Photos

1,816,909 photos uploaded!

WunderBlogs® & News

Nearby

Air Quality

  Air Quality AQ Index Pollutant
Not available.

Snow Depth

Station Depth Elevation

Earthquake Activity

City Distance Mag. Time & Date
Minimum magnitude displayed is 2.5.

Coastal Water Temperatures

Place Temperature

Stations

Nearby Weather Stations

Station Location Temp. Windchill Dew Point Humidity Wind Precip. Elev Updated Type